sensor_id;sensor_type;location;lat;lon;timestamp;temperature;humidity
2391;DHT22;22957;50.824;4.360;2023-05-10T00:01:37;14.90;99.90
2391;DHT22;22957;50.824;4.360;2023-05-10T00:04:03;14.90;99.90
2391;DHT22;22957;50.824;4.360;2023-05-10T00:06:29;14.70;99.90
2391;DHT22;22957;50.824;4.360;2023-05-10T00:08:55;15.20;99.90
2391;DHT22;22957;50.824;4.360;2023-05-10T00:11:21;14.70;99.90
2391;DHT22;22957;50.824;4.360;2023-05-10T00:13:46;15.30;99.90
2391;DHT22;22957;50.824;4.360;2023-05-10T00:16:12;14.70;99.90
2391;DHT22;22957;50.824;4.360;2023-05-10T00:18:39;15.20;99.90
2391;DHT22;22957;50.824;4.360;2023-05-10T00:21:05;15.00;99.90
2391;DHT22;22957;50.824;4.360;2023-05-10T00:23:31;14.90;99.90
2391;DHT22;22957;50.824;4.360;2023-05-10T00:25:56;14.70;99.90
2391;DHT22;22957;50.824;4.360;2023-05-10T00:28:22;14.70;99.90
2391;DHT22;22957;50.824;4.360;2023-05-10T00:30:47;14.90;99.90
2391;DHT22;22957;50.824;4.360;2023-05-10T00:33:13;14.80;99.90
2391;DHT22;22957;50.824;4.360;2023-05-10T00:35:39;14.70;99.90
2391;DHT22;22957;50.824;4.360;2023-05-10T00:38:04;14.70;99.90
2391;DHT22;22957;50.824;4.360;2023-05-10T00:40:30;14.50;99.90
2391;DHT22;22957;50.824;4.360;2023-05-10T00:42:56;14.70;99.90
2391;DHT22;22957;50.824;4.360;2023-05-10T00:45:22;15.10;99.90
2391;DHT22;22957;50.824;4.360;2023-05-10T00:47:48;15.00;99.90
2391;DHT22;22957;50.824;4.360;2023-05-10T00:50:14;15.10;99.90
2391;DHT22;22957;50.824;4.360;2023-05-10T00:52:41;15.00;99.90
2391;DHT22;22957;50.824;4.360;2023-05-10T00:55:07;15.10;99.90
2391;DHT22;22957;50.824;4.360;2023-05-10T00:57:34;15.10;99.90
2391;DHT22;22957;50.824;4.360;2023-05-10T01:00:01;15.10;99.90
2391;DHT22;22957;50.824;4.360;2023-05-10T01:02:28;14.70;99.90
2391;DHT22;22957;50.824;4.360;2023-05-10T01:04:54;14.70;99.90
2391;DHT22;22957;50.824;4.360;2023-05-10T01:07:20;15.30;99.90
2391;DHT22;22957;50.824;4.360;2023-05-10T01:09:45;14.70;99.90
2391;DHT22;22957;50.824;4.360;2023-05-10T01:12:11;14.40;99.90
2391;DHT22;22957;50.824;4.360;2023-05-10T01:14:37;14.50;99.90
2391;DHT22;22957;50.824;4.360;2023-05-10T01:17:04;14.80;99.90
2391;DHT22;22957;50.824;4.360;2023-05-10T01:19:31;15.00;99.90
2391;DHT22;22957;50.824;4.360;2023-05-10T01:28:06;14.70;99.90
2391;DHT22;22957;50.824;4.360;2023-05-10T01:39:11;14.80;99.90
2391;DHT22;22957;50.824;4.360;2023-05-10T01:44:17;14.90;99.90
2391;DHT22;22957;50.824;4.360;2023-05-10T01:46:50;14.90;99.90
2391;DHT22;22957;50.824;4.360;2023-05-10T01:49:31;15.50;99.90
2391;DHT22;22957;50.824;4.360;2023-05-10T01:52:03;15.10;99.90
2391;DHT22;22957;50.824;4.360;2023-05-10T01:54:33;15.10;99.90
2391;DHT22;22957;50.824;4.360;2023-05-10T01:57:02;15.20;99.90
2391;DHT22;22957;50.824;4.360;2023-05-10T01:59:34;15.00;99.90
2391;DHT22;22957;50.824;4.360;2023-05-10T02:02:07;15.30;99.90
2391;DHT22;22957;50.824;4.360;2023-05-10T02:04:37;14.90;99.90
2391;DHT22;22957;50.824;4.360;2023-05-10T02:07:05;14.80;99.90
2391;DHT22;22957;50.824;4.360;2023-05-10T02:09:32;15.20;99.90
2391;DHT22;22957;50.824;4.360;2023-05-10T02:12:00;14.80;99.90
2391;DHT22;22957;50.824;4.360;2023-05-10T02:14:30;15.20;99.90
2391;DHT22;22957;50.824;4.360;2023-05-10T02:16:58;14.40;99.90
2391;DHT22;22957;50.824;4.360;2023-05-10T02:19:27;14.80;99.90
2391;DHT22;22957;50.824;4.360;2023-05-10T02:21:55;14.70;99.90
2391;DHT22;22957;50.824;4.360;2023-05-10T02:24:21;14.20;99.90
2391;DHT22;22957;50.824;4.360;2023-05-10T02:26:51;15.10;99.90
2391;DHT22;22957;50.824;4.360;2023-05-10T02:29:20;14.70;99.90
2391;DHT22;22957;50.824;4.360;2023-05-10T02:31:46;14.90;99.90
2391;DHT22;22957;50.824;4.360;2023-05-10T02:34:13;14.40;99.90
2391;DHT22;22957;50.824;4.360;2023-05-10T02:36:39;15.10;99.90
2391;DHT22;22957;50.824;4.360;2023-05-10T02:39:06;15.00;99.90
2391;DHT22;22957;50.824;4.360;2023-05-10T02:41:35;14.90;99.90
2391;DHT22;22957;50.824;4.360;2023-05-10T02:44:02;15.10;99.90
2391;DHT22;22957;50.824;4.360;2023-05-10T02:46:29;14.90;99.90
2391;DHT22;22957;50.824;4.360;2023-05-10T02:48:55;14.40;99.90
2391;DHT22;22957;50.824;4.360;2023-05-10T02:51:24;14.60;99.90
2391;DHT22;22957;50.824;4.360;2023-05-10T02:53:51;14.70;99.90
2391;DHT22;22957;50.824;4.360;2023-05-10T02:56:36;14.70;99.90
2391;DHT22;22957;50.824;4.360;2023-05-10T02:59:06;14.80;99.90
2391;DHT22;22957;50.824;4.360;2023-05-10T03:01:32;14.70;99.90
2391;DHT22;22957;50.824;4.360;2023-05-10T03:03:57;14.90;99.90
2391;DHT22;22957;50.824;4.360;2023-05-10T03:06:23;15.00;99.90
2391;DHT22;22957;50.824;4.360;2023-05-10T03:08:49;14.80;99.90
2391;DHT22;22957;50.824;4.360;2023-05-10T03:16:31;14.80;99.90
2391;DHT22;22957;50.824;4.360;2023-05-10T03:21:59;14.40;99.90
2391;DHT22;22957;50.824;4.360;2023-05-10T03:24:28;14.50;99.90
2391;DHT22;22957;50.824;4.360;2023-05-10T03:26:56;14.50;99.90
2391;DHT22;22957;50.824;4.360;2023-05-10T03:29:26;14.20;99.90
2391;DHT22;22957;50.824;4.360;2023-05-10T03:31:52;14.40;99.90
2391;DHT22;22957;50.824;4.360;2023-05-10T03:34:23;14.50;99.90
2391;DHT22;22957;50.824;4.360;2023-05-10T03:36:49;14.70;99.90
2391;DHT22;22957;50.824;4.360;2023-05-10T03:39:15;15.00;99.90
2391;DHT22;22957;50.824;4.360;2023-05-10T03:41:40;14.70;99.90
2391;DHT22;22957;50.824;4.360;2023-05-10T03:44:06;14.80;99.90
2391;DHT22;22957;50.824;4.360;2023-05-10T03:46:32;14.70;99.90
2391;DHT22;22957;50.824;4.360;2023-05-10T03:48:57;14.90;99.90
2391;DHT22;22957;50.824;4.360;2023-05-10T03:51:23;14.90;99.90
2391;DHT22;22957;50.824;4.360;2023-05-10T03:53:56;15.00;99.90
2391;DHT22;22957;50.824;4.360;2023-05-10T03:56:21;14.70;99.90
2391;DHT22;22957;50.824;4.360;2023-05-10T03:58:47;15.00;99.90
2391;DHT22;22957;50.824;4.360;2023-05-10T04:01:13;14.70;99.90
2391;DHT22;22957;50.824;4.360;2023-05-10T04:03:38;14.90;99.90
2391;DHT22;22957;50.824;4.360;2023-05-10T04:06:04;15.00;99.90
2391;DHT22;22957;50.824;4.360;2023-05-10T04:08:31;15.10;99.90
2391;DHT22;22957;50.824;4.360;2023-05-10T04:11:06;14.90;99.90
2391;DHT22;22957;50.824;4.360;2023-05-10T04:13:33;15.00;99.90
2391;DHT22;22957;50.824;4.360;2023-05-10T04:15:58;15.00;99.90
2391;DHT22;22957;50.824;4.360;2023-05-10T04:18:24;15.00;99.90
2391;DHT22;22957;50.824;4.360;2023-05-10T04:20:50;15.00;99.90
2391;DHT22;22957;50.824;4.360;2023-05-10T04:23:16;15.00;99.90
2391;DHT22;22957;50.824;4.360;2023-05-10T04:25:42;15.10;99.90
2391;DHT22;22957;50.824;4.360;2023-05-10T04:28:08;15.00;99.90
2391;DHT22;22957;50.824;4.360;2023-05-10T04:30:34;15.00;99.90
2391;DHT22;22957;50.824;4.360;2023-05-10T04:33:00;15.30;99.90
2391;DHT22;22957;50.824;4.360;2023-05-10T04:35:27;15.10;99.90
2391;DHT22;22957;50.824;4.360;2023-05-10T04:37:53;14.80;99.90
2391;DHT22;22957;50.824;4.360;2023-05-10T04:40:19;14.90;99.90
2391;DHT22;22957;50.824;4.360;2023-05-10T04:42:45;14.90;99.90
2391;DHT22;22957;50.824;4.360;2023-05-10T04:45:11;14.80;99.90
2391;DHT22;22957;50.824;4.360;2023-05-10T04:47:37;15.20;99.90
2391;DHT22;22957;50.824;4.360;2023-05-10T04:50:03;15.10;99.90
2391;DHT22;22957;50.824;4.360;2023-05-10T04:52:29;15.20;99.90
2391;DHT22;22957;50.824;4.360;2023-05-10T04:54:55;14.70;99.90
2391;DHT22;22957;50.824;4.360;2023-05-10T04:57:21;15.30;99.90
2391;DHT22;22957;50.824;4.360;2023-05-10T04:59:47;15.00;99.90
2391;DHT22;22957;50.824;4.360;2023-05-10T05:02:12;15.20;99.90
2391;DHT22;22957;50.824;4.360;2023-05-10T05:04:38;15.10;99.90
2391;DHT22;22957;50.824;4.360;2023-05-10T05:07:04;14.90;99.90
2391;DHT22;22957;50.824;4.360;2023-05-10T05:09:30;15.00;99.90
2391;DHT22;22957;50.824;4.360;2023-05-10T05:11:57;14.70;99.90
2391;DHT22;22957;50.824;4.360;2023-05-10T05:14:23;15.00;99.90
2391;DHT22;22957;50.824;4.360;2023-05-10T05:16:51;14.60;99.90
2391;DHT22;22957;50.824;4.360;2023-05-10T05:19:16;14.60;99.90
2391;DHT22;22957;50.824;4.360;2023-05-10T05:21:42;14.50;99.90
2391;DHT22;22957;50.824;4.360;2023-05-10T05:24:08;14.90;99.90
2391;DHT22;22957;50.824;4.360;2023-05-10T05:26:35;14.50;99.90
2391;DHT22;22957;50.824;4.360;2023-05-10T05:29:01;14.40;99.90
2391;DHT22;22957;50.824;4.360;2023-05-10T05:31:26;14.60;99.90
2391;DHT22;22957;50.824;4.360;2023-05-10T05:33:52;14.80;99.90
2391;DHT22;22957;50.824;4.360;2023-05-10T05:36:17;14.40;99.90
2391;DHT22;22957;50.824;4.360;2023-05-10T05:38:43;14.00;99.90
2391;DHT22;22957;50.824;4.360;2023-05-10T05:41:09;14.20;99.90
2391;DHT22;22957;50.824;4.360;2023-05-10T05:43:34;14.50;99.90
2391;DHT22;22957;50.824;4.360;2023-05-10T05:46:00;14.60;99.90
2391;DHT22;22957;50.824;4.360;2023-05-10T05:48:25;14.40;99.90
2391;DHT22;22957;50.824;4.360;2023-05-10T05:50:54;14.80;99.90
2391;DHT22;22957;50.824;4.360;2023-05-10T05:53:21;14.40;99.90
2391;DHT22;22957;50.824;4.360;2023-05-10T05:55:57;14.30;99.90
2391;DHT22;22957;50.824;4.360;2023-05-10T05:58:24;14.50;99.90
2391;DHT22;22957;50.824;4.360;2023-05-10T06:00:51;14.50;99.90
2391;DHT22;22957;50.824;4.360;2023-05-10T06:03:19;14.20;99.90
2391;DHT22;22957;50.824;4.360;2023-05-10T06:05:45;14.20;99.90
2391;DHT22;22957;50.824;4.360;2023-05-10T06:08:11;14.20;99.90
2391;DHT22;22957;50.824;4.360;2023-05-10T06:10:37;14.50;99.90
2391;DHT22;22957;50.824;4.360;2023-05-10T06:13:03;14.60;99.90
2391;DHT22;22957;50.824;4.360;2023-05-10T06:15:28;14.40;99.90
2391;DHT22;22957;50.824;4.360;2023-05-10T06:17:54;14.60;99.90
2391;DHT22;22957;50.824;4.360;2023-05-10T06:20:19;14.40;99.90
2391;DHT22;22957;50.824;4.360;2023-05-10T06:22:45;13.90;99.90
2391;DHT22;22957;50.824;4.360;2023-05-10T06:25:11;14.00;99.90
2391;DHT22;22957;50.824;4.360;2023-05-10T06:27:37;14.30;99.90
2391;DHT22;22957;50.824;4.360;2023-05-10T06:30:02;14.20;99.90
2391;DHT22;22957;50.824;4.360;2023-05-10T06:32:28;14.00;99.90
2391;DHT22;22957;50.824;4.360;2023-05-10T06:34:54;14.10;99.90
2391;DHT22;22957;50.824;4.360;2023-05-10T06:37:19;14.30;99.90
2391;DHT22;22957;50.824;4.360;2023-05-10T06:39:45;14.10;99.90
2391;DHT22;22957;50.824;4.360;2023-05-10T06:42:11;14.10;99.90
2391;DHT22;22957;50.824;4.360;2023-05-10T06:44:36;14.30;99.90
2391;DHT22;22957;50.824;4.360;2023-05-10T06:47:02;14.30;99.90
2391;DHT22;22957;50.824;4.360;2023-05-10T06:49:27;14.00;99.90
2391;DHT22;22957;50.824;4.360;2023-05-10T06:51:54;13.70;99.90
2391;DHT22;22957;50.824;4.360;2023-05-10T06:54:20;13.90;99.90
2391;DHT22;22957;50.824;4.360;2023-05-10T06:56:46;14.30;99.90
2391;DHT22;22957;50.824;4.360;2023-05-10T06:59:12;14.30;99.90
2391;DHT22;22957;50.824;4.360;2023-05-10T07:01:39;14.60;99.90
2391;DHT22;22957;50.824;4.360;2023-05-10T07:04:04;14.70;99.90
2391;DHT22;22957;50.824;4.360;2023-05-10T07:06:30;14.50;99.90
2391;DHT22;22957;50.824;4.360;2023-05-10T07:08:56;14.80;99.90
2391;DHT22;22957;50.824;4.360;2023-05-10T07:11:22;14.80;99.90
2391;DHT22;22957;50.824;4.360;2023-05-10T07:13:47;14.80;99.90
2391;DHT22;22957;50.824;4.360;2023-05-10T07:16:13;14.90;99.90
2391;DHT22;22957;50.824;4.360;2023-05-10T07:18:39;14.90;99.90
2391;DHT22;22957;50.824;4.360;2023-05-10T07:21:04;14.70;99.90
2391;DHT22;22957;50.824;4.360;2023-05-10T07:23:30;14.60;99.90
2391;DHT22;22957;50.824;4.360;2023-05-10T07:25:56;14.60;99.90
2391;DHT22;22957;50.824;4.360;2023-05-10T07:28:23;14.50;99.90
2391;DHT22;22957;50.824;4.360;2023-05-10T07:30:49;14.80;99.90
2391;DHT22;22957;50.824;4.360;2023-05-10T07:33:15;14.20;99.90
2391;DHT22;22957;50.824;4.360;2023-05-10T07:35:41;14.70;99.90
2391;DHT22;22957;50.824;4.360;2023-05-10T07:38:07;14.50;99.90
2391;DHT22;22957;50.824;4.360;2023-05-10T07:40:33;14.60;99.90
2391;DHT22;22957;50.824;4.360;2023-05-10T07:42:59;14.80;99.90
2391;DHT22;22957;50.824;4.360;2023-05-10T07:45:27;14.70;99.90
2391;DHT22;22957;50.824;4.360;2023-05-10T07:47:52;14.60;99.90
2391;DHT22;22957;50.824;4.360;2023-05-10T07:50:18;15.00;99.90
2391;DHT22;22957;50.824;4.360;2023-05-10T07:52:43;15.10;99.90
2391;DHT22;22957;50.824;4.360;2023-05-10T07:55:09;14.80;99.90
2391;DHT22;22957;50.824;4.360;2023-05-10T07:57:35;14.60;99.90
2391;DHT22;22957;50.824;4.360;2023-05-10T08:00:02;15.10;99.90
2391;DHT22;22957;50.824;4.360;2023-05-10T08:02:28;15.10;99.90
2391;DHT22;22957;50.824;4.360;2023-05-10T08:04:53;14.80;99.90
2391;DHT22;22957;50.824;4.360;2023-05-10T08:07:19;14.70;99.90
2391;DHT22;22957;50.824;4.360;2023-05-10T08:09:44;14.80;99.90
2391;DHT22;22957;50.824;4.360;2023-05-10T08:12:10;14.90;99.90
2391;DHT22;22957;50.824;4.360;2023-05-10T08:14:36;15.10;99.90
2391;DHT22;22957;50.824;4.360;2023-05-10T08:17:04;15.40;99.90
2391;DHT22;22957;50.824;4.360;2023-05-10T08:19:30;15.10;99.90
2391;DHT22;22957;50.824;4.360;2023-05-10T08:21:55;15.20;99.90
2391;DHT22;22957;50.824;4.360;2023-05-10T08:24:22;15.20;99.90
2391;DHT22;22957;50.824;4.360;2023-05-10T08:26:47;15.20;99.90
2391;DHT22;22957;50.824;4.360;2023-05-10T08:29:14;14.90;99.90
2391;DHT22;22957;50.824;4.360;2023-05-10T08:31:39;15.30;99.90
2391;DHT22;22957;50.824;4.360;2023-05-10T08:34:05;15.80;99.90
2391;DHT22;22957;50.824;4.360;2023-05-10T08:36:30;15.50;99.90
2391;DHT22;22957;50.824;4.360;2023-05-10T08:38:57;15.60;99.90
2391;DHT22;22957;50.824;4.360;2023-05-10T08:41:24;15.60;99.90
2391;DHT22;22957;50.824;4.360;2023-05-10T08:43:52;15.70;99.90
2391;DHT22;22957;50.824;4.360;2023-05-10T08:46:19;15.30;99.90
2391;DHT22;22957;50.824;4.360;2023-05-10T08:48:46;16.10;99.90
2391;DHT22;22957;50.824;4.360;2023-05-10T08:51:18;15.60;99.90
2391;DHT22;22957;50.824;4.360;2023-05-10T08:53:45;14.90;99.90
2391;DHT22;22957;50.824;4.360;2023-05-10T08:56:11;15.70;99.90
2391;DHT22;22957;50.824;4.360;2023-05-10T08:58:38;16.00;99.90
2391;DHT22;22957;50.824;4.360;2023-05-10T09:01:05;15.60;99.90
2391;DHT22;22957;50.824;4.360;2023-05-10T09:03:31;15.80;99.90
2391;DHT22;22957;50.824;4.360;2023-05-10T09:05:57;15.80;99.90
2391;DHT22;22957;50.824;4.360;2023-05-10T09:08:26;15.80;99.90
2391;DHT22;22957;50.824;4.360;2023-05-10T09:10:53;15.30;99.90
2391;DHT22;22957;50.824;4.360;2023-05-10T09:13:19;15.30;99.90
2391;DHT22;22957;50.824;4.360;2023-05-10T09:15:47;15.30;99.90
2391;DHT22;22957;50.824;4.360;2023-05-10T09:18:13;15.40;99.90
2391;DHT22;22957;50.824;4.360;2023-05-10T09:20:39;15.50;99.90
2391;DHT22;22957;50.824;4.360;2023-05-10T09:23:04;15.40;99.90
2391;DHT22;22957;50.824;4.360;2023-05-10T09:25:31;15.70;99.90
2391;DHT22;22957;50.824;4.360;2023-05-10T09:27:59;15.30;99.90
2391;DHT22;22957;50.824;4.360;2023-05-10T09:30:27;15.20;99.90
2391;DHT22;22957;50.824;4.360;2023-05-10T09:32:54;15.40;99.90
2391;DHT22;22957;50.824;4.360;2023-05-10T09:35:21;15.20;99.90
2391;DHT22;22957;50.824;4.360;2023-05-10T09:37:50;15.30;99.90
2391;DHT22;22957;50.824;4.360;2023-05-10T09:40:20;15.30;99.90
2391;DHT22;22957;50.824;4.360;2023-05-10T09:42:59;15.30;99.90
2391;DHT22;22957;50.824;4.360;2023-05-10T09:45:29;15.20;99.90
2391;DHT22;22957;50.824;4.360;2023-05-10T09:47:56;15.30;99.90
2391;DHT22;22957;50.824;4.360;2023-05-10T09:50:22;15.00;99.90
2391;DHT22;22957;50.824;4.360;2023-05-10T09:52:56;15.50;99.90
2391;DHT22;22957;50.824;4.360;2023-05-10T09:55:41;15.40;99.90
2391;DHT22;22957;50.824;4.360;2023-05-10T09:58:08;15.00;99.90
2391;DHT22;22957;50.824;4.360;2023-05-10T10:00:38;15.00;99.90
2391;DHT22;22957;50.824;4.360;2023-05-10T10:03:04;15.00;99.90
2391;DHT22;22957;50.824;4.360;2023-05-10T10:05:35;15.40;99.90
2391;DHT22;22957;50.824;4.360;2023-05-10T10:08:03;15.40;99.90
2391;DHT22;22957;50.824;4.360;2023-05-10T10:10:29;15.20;99.90
2391;DHT22;22957;50.824;4.360;2023-05-10T10:12:56;15.20;99.90
2391;DHT22;22957;50.824;4.360;2023-05-10T10:15:22;15.80;99.90
2391;DHT22;22957;50.824;4.360;2023-05-10T10:17:50;15.30;99.90
2391;DHT22;22957;50.824;4.360;2023-05-10T10:20:17;15.50;99.90
2391;DHT22;22957;50.824;4.360;2023-05-10T10:22:43;16.00;99.90
2391;DHT22;22957;50.824;4.360;2023-05-10T10:25:12;15.50;99.90
2391;DHT22;22957;50.824;4.360;2023-05-10T10:35:58;15.90;99.90
2391;DHT22;22957;50.824;4.360;2023-05-10T10:38:25;15.70;99.90
2391;DHT22;22957;50.824;4.360;2023-05-10T10:41:27;15.20;99.90
2391;DHT22;22957;50.824;4.360;2023-05-10T10:44:25;15.70;99.90
2391;DHT22;22957;50.824;4.360;2023-05-10T10:49:22;15.80;99.90
2391;DHT22;22957;50.824;4.360;2023-05-10T10:57:27;16.20;99.90
2391;DHT22;22957;50.824;4.360;2023-05-10T11:02:51;16.80;99.90
2391;DHT22;22957;50.824;4.360;2023-05-10T11:08:54;16.90;99.90
2391;DHT22;22957;50.824;4.360;2023-05-10T11:11:14;17.10;99.90
2391;DHT22;22957;50.824;4.360;2023-05-10T11:21:25;17.10;99.90
2391;DHT22;22957;50.824;4.360;2023-05-10T11:23:54;17.60;99.90
2391;DHT22;22957;50.824;4.360;2023-05-10T11:26:34;17.50;99.90
2391;DHT22;22957;50.824;4.360;2023-05-10T11:29:00;17.90;99.90
2391;DHT22;22957;50.824;4.360;2023-05-10T11:31:27;18.10;99.90
2391;DHT22;22957;50.824;4.360;2023-05-10T11:33:58;18.00;99.90
2391;DHT22;22957;50.824;4.360;2023-05-10T11:36:29;18.50;99.90
2391;DHT22;22957;50.824;4.360;2023-05-10T11:38:56;19.00;99.90
2391;DHT22;22957;50.824;4.360;2023-05-10T11:41:23;19.30;99.90
2391;DHT22;22957;50.824;4.360;2023-05-10T11:43:53;19.30;99.90
2391;DHT22;22957;50.824;4.360;2023-05-10T11:46:21;19.90;99.90
2391;DHT22;22957;50.824;4.360;2023-05-10T11:48:51;20.10;99.90
2391;DHT22;22957;50.824;4.360;2023-05-10T11:51:24;19.80;99.90
2391;DHT22;22957;50.824;4.360;2023-05-10T11:53:53;19.40;99.90
2391;DHT22;22957;50.824;4.360;2023-05-10T11:56:19;19.40;99.90
2391;DHT22;22957;50.824;4.360;2023-05-10T11:58:56;20.60;99.90
2391;DHT22;22957;50.824;4.360;2023-05-10T12:01:23;20.60;99.90
2391;DHT22;22957;50.824;4.360;2023-05-10T12:03:50;20.50;99.90
2391;DHT22;22957;50.824;4.360;2023-05-10T12:06:19;20.10;99.90
2391;DHT22;22957;50.824;4.360;2023-05-10T12:08:46;19.50;99.90
2391;DHT22;22957;50.824;4.360;2023-05-10T12:11:13;19.60;99.90
2391;DHT22;22957;50.824;4.360;2023-05-10T12:13:42;19.00;99.90
2391;DHT22;22957;50.824;4.360;2023-05-10T12:16:18;19.30;99.90
2391;DHT22;22957;50.824;4.360;2023-05-10T12:18:45;19.80;99.90
2391;DHT22;22957;50.824;4.360;2023-05-10T12:21:15;19.70;99.90
2391;DHT22;22957;50.824;4.360;2023-05-10T12:23:41;19.70;99.90
2391;DHT22;22957;50.824;4.360;2023-05-10T12:26:09;19.90;99.90
2391;DHT22;22957;50.824;4.360;2023-05-10T12:28:36;19.70;99.90
2391;DHT22;22957;50.824;4.360;2023-05-10T12:31:03;19.90;99.90
2391;DHT22;22957;50.824;4.360;2023-05-10T12:33:41;20.00;99.90
2391;DHT22;22957;50.824;4.360;2023-05-10T12:36:09;20.40;99.90
2391;DHT22;22957;50.824;4.360;2023-05-10T12:38:40;20.20;99.90
2391;DHT22;22957;50.824;4.360;2023-05-10T12:41:14;20.30;99.90
2391;DHT22;22957;50.824;4.360;2023-05-10T12:43:40;20.20;99.90
2391;DHT22;22957;50.824;4.360;2023-05-10T12:46:11;20.70;99.90
2391;DHT22;22957;50.824;4.360;2023-05-10T12:48:37;21.30;99.90
2391;DHT22;22957;50.824;4.360;2023-05-10T12:51:04;21.20;99.90
2391;DHT22;22957;50.824;4.360;2023-05-10T12:53:30;21.80;99.90
2391;DHT22;22957;50.824;4.360;2023-05-10T12:55:55;22.10;99.90
2391;DHT22;22957;50.824;4.360;2023-05-10T12:58:21;21.40;99.90
2391;DHT22;22957;50.824;4.360;2023-05-10T13:00:47;21.90;99.90
2391;DHT22;22957;50.824;4.360;2023-05-10T13:03:13;21.80;99.90
2391;DHT22;22957;50.824;4.360;2023-05-10T13:05:38;22.00;99.90
2391;DHT22;22957;50.824;4.360;2023-05-10T13:08:04;22.30;99.90
2391;DHT22;22957;50.824;4.360;2023-05-10T13:10:30;23.00;99.90
2391;DHT22;22957;50.824;4.360;2023-05-10T13:12:57;22.50;99.90
2391;DHT22;22957;50.824;4.360;2023-05-10T13:15:23;22.30;99.90
2391;DHT22;22957;50.824;4.360;2023-05-10T13:17:48;22.50;99.90
2391;DHT22;22957;50.824;4.360;2023-05-10T13:20:14;22.10;99.90
2391;DHT22;22957;50.824;4.360;2023-05-10T13:22:41;21.70;99.90
2391;DHT22;22957;50.824;4.360;2023-05-10T13:25:07;21.90;99.90
2391;DHT22;22957;50.824;4.360;2023-05-10T13:27:33;21.60;99.90
2391;DHT22;22957;50.824;4.360;2023-05-10T13:29:59;21.00;99.90
2391;DHT22;22957;50.824;4.360;2023-05-10T13:32:25;21.50;99.90
2391;DHT22;22957;50.824;4.360;2023-05-10T13:34:51;22.00;99.90
2391;DHT22;22957;50.824;4.360;2023-05-10T13:37:17;21.90;99.90
2391;DHT22;22957;50.824;4.360;2023-05-10T13:39:42;21.60;99.90
2391;DHT22;22957;50.824;4.360;2023-05-10T13:42:08;21.70;99.90
2391;DHT22;22957;50.824;4.360;2023-05-10T13:44:33;21.80;99.90
2391;DHT22;22957;50.824;4.360;2023-05-10T13:46:59;21.60;99.90
2391;DHT22;22957;50.824;4.360;2023-05-10T13:49:25;21.50;99.90
2391;DHT22;22957;50.824;4.360;2023-05-10T13:51:50;21.60;99.90
2391;DHT22;22957;50.824;4.360;2023-05-10T13:54:17;21.70;99.90
2391;DHT22;22957;50.824;4.360;2023-05-10T13:56:45;21.90;99.90
2391;DHT22;22957;50.824;4.360;2023-05-10T13:59:12;21.30;99.90
2391;DHT22;22957;50.824;4.360;2023-05-10T14:01:39;21.60;99.90
2391;DHT22;22957;50.824;4.360;2023-05-10T14:04:05;21.70;99.90
2391;DHT22;22957;50.824;4.360;2023-05-10T14:06:31;21.40;99.90
2391;DHT22;22957;50.824;4.360;2023-05-10T14:08:57;20.90;99.90
2391;DHT22;22957;50.824;4.360;2023-05-10T14:11:22;20.30;99.90
2391;DHT22;22957;50.824;4.360;2023-05-10T14:13:48;20.10;99.90
2391;DHT22;22957;50.824;4.360;2023-05-10T14:16:14;20.10;99.90
2391;DHT22;22957;50.824;4.360;2023-05-10T14:18:40;20.60;99.90
2391;DHT22;22957;50.824;4.360;2023-05-10T14:21:06;20.80;99.90
2391;DHT22;22957;50.824;4.360;2023-05-10T14:23:31;21.30;99.90
2391;DHT22;22957;50.824;4.360;2023-05-10T14:25:57;20.60;99.90
2391;DHT22;22957;50.824;4.360;2023-05-10T14:28:22;20.60;99.90
2391;DHT22;22957;50.824;4.360;2023-05-10T14:30:49;20.80;99.90
2391;DHT22;22957;50.824;4.360;2023-05-10T14:33:14;20.70;99.90
2391;DHT22;22957;50.824;4.360;2023-05-10T14:35:40;21.50;99.90
2391;DHT22;22957;50.824;4.360;2023-05-10T14:38:06;21.70;99.90
2391;DHT22;22957;50.824;4.360;2023-05-10T14:40:32;21.40;99.90
2391;DHT22;22957;50.824;4.360;2023-05-10T14:42:57;20.90;99.90
2391;DHT22;22957;50.824;4.360;2023-05-10T14:45:23;20.70;99.90
2391;DHT22;22957;50.824;4.360;2023-05-10T14:47:49;20.60;99.90
2391;DHT22;22957;50.824;4.360;2023-05-10T14:50:15;21.30;99.90
2391;DHT22;22957;50.824;4.360;2023-05-10T14:52:42;20.90;99.90
2391;DHT22;22957;50.824;4.360;2023-05-10T14:55:08;20.60;99.90
2391;DHT22;22957;50.824;4.360;2023-05-10T14:57:34;20.30;99.90
2391;DHT22;22957;50.824;4.360;2023-05-10T14:59:59;20.60;99.90
2391;DHT22;22957;50.824;4.360;2023-05-10T15:02:25;20.70;99.90
2391;DHT22;22957;50.824;4.360;2023-05-10T15:04:51;20.90;99.90
2391;DHT22;22957;50.824;4.360;2023-05-10T15:07:16;20.50;99.90
2391;DHT22;22957;50.824;4.360;2023-05-10T15:09:46;20.50;99.90
2391;DHT22;22957;50.824;4.360;2023-05-10T15:12:12;20.20;99.90
2391;DHT22;22957;50.824;4.360;2023-05-10T15:14:37;19.80;99.90
2391;DHT22;22957;50.824;4.360;2023-05-10T15:17:05;19.60;99.90
2391;DHT22;22957;50.824;4.360;2023-05-10T15:19:31;19.70;99.90
2391;DHT22;22957;50.824;4.360;2023-05-10T15:21:58;19.00;99.90
2391;DHT22;22957;50.824;4.360;2023-05-10T15:24:24;18.90;99.90
2391;DHT22;22957;50.824;4.360;2023-05-10T15:26:50;18.70;99.90
2391;DHT22;22957;50.824;4.360;2023-05-10T15:29:15;18.60;99.90
2391;DHT22;22957;50.824;4.360;2023-05-10T15:31:49;18.60;99.90
2391;DHT22;22957;50.824;4.360;2023-05-10T15:34:16;18.50;99.90
2391;DHT22;22957;50.824;4.360;2023-05-10T15:36:42;18.20;99.90
2391;DHT22;22957;50.824;4.360;2023-05-10T15:39:07;18.00;99.90
2391;DHT22;22957;50.824;4.360;2023-05-10T15:41:34;18.10;99.90
2391;DHT22;22957;50.824;4.360;2023-05-10T15:44:00;18.10;99.90
2391;DHT22;22957;50.824;4.360;2023-05-10T15:46:27;18.00;99.90
2391;DHT22;22957;50.824;4.360;2023-05-10T15:48:53;18.80;99.90
2391;DHT22;22957;50.824;4.360;2023-05-10T15:51:18;19.20;99.90
2391;DHT22;22957;50.824;4.360;2023-05-10T15:53:44;19.50;99.90
2391;DHT22;22957;50.824;4.360;2023-05-10T15:56:10;19.50;99.90
2391;DHT22;22957;50.824;4.360;2023-05-10T15:58:37;19.80;99.90
2391;DHT22;22957;50.824;4.360;2023-05-10T16:01:03;20.20;99.90
2391;DHT22;22957;50.824;4.360;2023-05-10T16:03:30;20.20;99.90
2391;DHT22;22957;50.824;4.360;2023-05-10T16:05:56;20.30;99.90
2391;DHT22;22957;50.824;4.360;2023-05-10T16:08:22;20.90;99.90
2391;DHT22;22957;50.824;4.360;2023-05-10T16:10:50;20.70;99.90
2391;DHT22;22957;50.824;4.360;2023-05-10T16:13:16;20.90;99.90
2391;DHT22;22957;50.824;4.360;2023-05-10T16:15:41;20.80;99.90
2391;DHT22;22957;50.824;4.360;2023-05-10T16:18:07;21.10;99.90
2391;DHT22;22957;50.824;4.360;2023-05-10T16:20:33;20.90;99.90
2391;DHT22;22957;50.824;4.360;2023-05-10T16:23:04;21.10;99.90
2391;DHT22;22957;50.824;4.360;2023-05-10T16:25:31;20.90;99.90
2391;DHT22;22957;50.824;4.360;2023-05-10T16:27:57;20.90;99.90
2391;DHT22;22957;50.824;4.360;2023-05-10T16:30:23;21.50;99.90
2391;DHT22;22957;50.824;4.360;2023-05-10T16:32:52;21.10;99.90
2391;DHT22;22957;50.824;4.360;2023-05-10T16:35:17;21.00;99.90
2391;DHT22;22957;50.824;4.360;2023-05-10T16:37:43;20.60;99.90
2391;DHT22;22957;50.824;4.360;2023-05-10T16:40:09;21.00;99.90